Time;durP1;ratioP1;P1;durP2;ratioP2;P2;SDS_P1;SDS_P2;PMS_P1;PMS_P2;Temp;Humidity;BMP_temperature;BMP_pressure;BME280_temperature;BME280_humidity;BME280_pressure;Samples;Min_cycle;Max_cycle;Signal;HPM_P1;HPM_P2
2022/12/05 00:00:26;;;;;;;46.03;22.83;;;6.00;99.90;;;;;;4970426;28;20042;-84
2022/12/05 00:02:52;;;;;;;49.15;23.08;;;6.10;99.90;;;;;;4970275;28;20090;-84
2022/12/05 00:05:19;;;;;;;48.28;23.83;;;6.00;99.90;;;;;;4966573;28;20055;-84
2022/12/05 00:07:46;;;;;;;42.50;22.73;;;5.90;99.90;;;;;;4970779;28;20051;-84
2022/12/05 00:10:13;;;;;;;44.10;22.23;;;5.90;99.90;;;;;;4970180;28;20042;-84
2022/12/05 00:12:40;;;;;;;44.75;22.48;;;5.90;99.90;;;;;;4964418;28;20046;-84
2022/12/05 00:15:11;;;;;;;41.80;22.02;;;6.00;99.90;;;;;;4976752;28;20496;-84
2022/12/05 00:17:40;;;;;;;45.53;23.00;;;6.00;99.90;;;;;;4971090;28;20042;-84
2022/12/05 00:20:09;;;;;;;42.15;22.02;;;6.10;99.90;;;;;;4963041;29;20062;-85
2022/12/05 00:22:36;;;;;;;44.85;22.58;;;6.10;99.90;;;;;;4974661;28;20051;-84
2022/12/05 00:25:05;;;;;;;44.25;22.83;;;6.10;99.90;;;;;;4970010;29;20550;-84
2022/12/05 00:27:32;;;;;;;41.22;22.20;;;6.10;99.90;;;;;;4964763;28;20054;-84
2022/12/05 00:29:59;;;;;;;42.22;22.67;;;6.10;99.90;;;;;;4951336;28;20050;-84
2022/12/05 00:32:26;;;;;;;37.80;21.67;;;6.10;99.90;;;;;;4962840;28;20054;-84
2022/12/05 00:34:54;;;;;;;39.00;20.48;;;6.20;99.90;;;;;;4968636;28;20550;-85
2022/12/05 00:37:21;;;;;;;38.92;21.25;;;6.10;99.90;;;;;;4966735;28;20047;-84
2022/12/05 00:39:48;;;;;;;46.67;22.25;;;6.10;99.90;;;;;;4971609;28;20518;-84
2022/12/05 00:42:15;;;;;;;40.80;20.50;;;6.10;99.90;;;;;;4972101;28;20053;-84
2022/12/05 00:44:46;;;;;;;42.90;21.10;;;6.10;99.90;;;;;;4971513;28;20070;-84
2022/12/05 00:47:13;;;;;;;45.55;22.05;;;6.10;99.90;;;;;;4942744;28;20050;-84
2022/12/05 00:49:39;;;;;;;42.63;21.48;;;6.20;99.90;;;;;;4965585;28;20050;-84
2022/12/05 00:52:08;;;;;;;41.28;21.17;;;6.20;99.90;;;;;;4967918;28;20051;-84
2022/12/05 00:54:35;;;;;;;42.92;21.63;;;6.20;99.90;;;;;;4965119;28;20053;-84
2022/12/05 00:57:01;;;;;;;42.53;21.27;;;6.20;99.90;;;;;;4955564;28;20054;-85
2022/12/05 00:59:28;;;;;;;40.92;21.75;;;6.20;99.90;;;;;;4951061;29;20047;-84
2022/12/05 01:01:55;;;;;;;37.83;21.13;;;6.20;99.90;;;;;;4958145;28;20043;-84
2022/12/05 01:04:24;;;;;;;43.50;21.65;;;6.20;99.90;;;;;;4976820;28;20041;-85
2022/12/05 01:06:53;;;;;;;42.28;22.05;;;6.20;99.90;;;;;;4969974;28;20046;-84
2022/12/05 01:09:22;;;;;;;42.08;21.30;;;6.20;99.90;;;;;;4969568;28;20046;-84
2022/12/05 01:11:49;;;;;;;44.28;21.85;;;6.20;99.90;;;;;;4967190;28;20050;-84
2022/12/05 01:14:17;;;;;;;39.72;21.80;;;6.20;99.90;;;;;;4951399;28;20051;-85
2022/12/05 01:16:46;;;;;;;37.40;20.02;;;6.20;99.90;;;;;;4956112;28;20181;-84
2022/12/05 01:19:15;;;;;;;44.55;19.88;;;6.20;99.90;;;;;;4970646;28;20047;-84
2022/12/05 01:21:42;;;;;;;41.13;20.02;;;6.20;99.90;;;;;;4976227;28;20043;-84
2022/12/05 01:24:09;;;;;;;36.08;20.33;;;6.20;99.90;;;;;;4974985;28;20047;-84
2022/12/05 01:26:38;;;;;;;41.17;21.60;;;6.50;99.90;;;;;;4971405;28;20053;-84
2022/12/05 01:29:05;;;;;;;37.30;20.05;;;6.30;99.90;;;;;;4969715;28;20047;-84
2022/12/05 01:31:33;;;;;;;38.90;20.75;;;6.30;99.90;;;;;;4969367;28;20053;-84
2022/12/05 01:34:02;;;;;;;39.08;20.88;;;6.30;99.90;;;;;;4969189;28;20050;-84
2022/12/05 01:36:29;;;;;;;39.40;20.65;;;6.30;99.90;;;;;;4973612;28;20061;-84
2022/12/05 01:38:57;;;;;;;43.88;21.77;;;6.30;99.90;;;;;;4964131;28;20117;-84
2022/12/05 01:41:26;;;;;;;39.13;20.33;;;6.30;99.90;;;;;;4954259;29;20043;-84
2022/12/05 01:43:56;;;;;;;40.63;21.00;;;6.30;99.90;;;;;;4965143;28;20054;-84
2022/12/05 01:46:23;;;;;;;34.85;19.35;;;6.30;99.90;;;;;;4976888;23;20526;-82
2022/12/05 01:48:50;;;;;;;43.80;21.20;;;6.30;99.90;;;;;;4996817;28;20478;-82
2022/12/05 01:51:19;;;;;;;40.53;20.42;;;6.30;99.90;;;;;;4992869;28;20047;-82
2022/12/05 01:53:46;;;;;;;37.67;20.05;;;6.20;99.90;;;;;;4990664;28;20042;-82
2022/12/05 01:56:13;;;;;;;35.60;19.73;;;6.30;99.90;;;;;;4991576;28;20042;-81
2022/12/05 01:58:42;;;;;;;37.60;20.88;;;6.30;99.90;;;;;;4991614;28;20049;-82
2022/12/05 02:01:11;;;;;;;39.55;20.48;;;6.20;99.90;;;;;;4990753;28;20046;-82
2022/12/05 02:03:38;;;;;;;36.10;20.20;;;6.30;99.90;;;;;;4990966;28;20042;-82
2022/12/05 02:06:08;;;;;;;40.30;20.70;;;6.20;99.90;;;;;;4996392;28;20038;-82
2022/12/05 02:08:35;;;;;;;40.03;21.13;;;6.20;99.90;;;;;;4993568;28;20060;-82
2022/12/05 02:11:02;;;;;;;41.25;21.02;;;6.20;99.90;;;;;;4990053;28;20486;-82
2022/12/05 02:13:48;;;;;;;34.80;19.70;;;6.20;99.90;;;;;;4990655;28;20042;-82
2022/12/05 02:16:23;;;;;;;37.58;20.33;;;6.30;99.90;;;;;;4985551;28;20053;-82
2022/12/05 02:18:58;;;;;;;37.13;19.10;;;6.30;99.90;;;;;;4991744;28;20106;-82
2022/12/05 02:21:54;;;;;;;37.85;19.83;;;6.30;99.90;;;;;;4990946;28;20521;-82
2022/12/05 02:25:04;;;;;;;42.45;21.25;;;6.30;99.90;;;;;;4983931;28;20054;-82
2022/12/05 02:27:44;;;;;;;40.53;20.48;;;6.30;99.90;;;;;;4997908;28;20152;-82
2022/12/05 02:30:14;;;;;;;36.45;19.83;;;6.30;99.90;;;;;;4981991;28;20498;-82
2022/12/05 02:32:50;;;;;;;35.03;19.80;;;6.40;99.90;;;;;;4994563;28;20046;-82
2022/12/05 02:35:38;;;;;;;39.88;20.60;;;6.40;99.90;;;;;;4972056;28;20051;-82
2022/12/05 02:38:15;;;;;;;42.47;21.90;;;6.30;99.90;;;;;;4984257;28;20120;-82
2022/12/05 02:40:50;;;;;;;42.70;20.92;;;6.30;99.90;;;;;;5006796;28;20037;-82
2022/12/05 02:43:19;;;;;;;39.67;19.77;;;6.30;99.90;;;;;;5007544;28;20050;-82
2022/12/05 02:45:49;;;;;;;39.85;20.52;;;6.20;99.90;;;;;;4991487;28;20088;-82
2022/12/05 02:48:17;;;;;;;40.97;21.10;;;6.20;99.90;;;;;;4986252;28;20037;-82
2022/12/05 02:50:44;;;;;;;39.47;20.30;;;6.20;99.90;;;;;;5002568;28;20046;-82
2022/12/05 02:53:12;;;;;;;39.90;19.98;;;6.20;99.90;;;;;;4999592;28;20053;-82
2022/12/05 02:55:40;;;;;;;35.58;19.90;;;6.20;99.90;;;;;;4991176;28;20057;-82
2022/12/05 02:58:11;;;;;;;37.30;20.20;;;6.30;99.90;;;;;;4991041;28;20521;-82
2022/12/05 03:00:40;;;;;;;38.08;19.85;;;6.50;99.90;;;;;;4991268;28;20053;-82
2022/12/05 03:03:14;;;;;;;37.88;19.80;;;6.20;99.90;;;;;;4993309;28;20681;-82
2022/12/05 03:05:45;;;;;;;35.67;19.35;;;6.20;99.90;;;;;;4991436;28;20049;-82
2022/12/05 03:08:15;;;;;;;38.20;20.23;;;6.30;99.90;;;;;;4998114;28;20084;-82
2022/12/05 03:10:44;;;;;;;39.55;19.52;;;6.30;99.90;;;;;;4990929;28;20118;-82
2022/12/05 03:13:14;;;;;;;39.85;21.15;;;6.30;99.90;;;;;;4981717;28;20046;-82
2022/12/05 03:15:47;;;;;;;39.05;19.98;;;6.30;99.90;;;;;;4991211;28;20490;-82
2022/12/05 03:18:18;;;;;;;38.10;21.30;;;6.30;99.90;;;;;;4990176;28;20050;-82
2022/12/05 03:20:48;;;;;;;39.60;21.63;;;6.20;99.90;;;;;;4993797;28;20038;-82
2022/12/05 03:23:20;;;;;;;42.75;20.85;;;6.20;99.90;;;;;;4989995;28;20049;-82
2022/12/05 03:25:50;;;;;;;41.13;21.48;;;6.20;99.90;;;;;;4993769;28;20046;-82
2022/12/05 03:28:22;;;;;;;38.25;20.17;;;6.20;99.90;;;;;;4992402;28;20046;-81
2022/12/05 03:30:48;;;;;;;;;;;6.30;99.90;;;;;;5004305;28;20050;-82
2022/12/05 03:33:20;;;;;;;37.97;19.77;;;6.30;99.90;;;;;;4999988;28;19922;-82
2022/12/05 03:35:53;;;;;;;35.50;19.02;;;6.30;99.90;;;;;;4993734;28;20051;-82
2022/12/05 03:38:26;;;;;;;37.35;20.10;;;6.30;99.90;;;;;;5003109;28;20046;-82
2022/12/05 03:40:57;;;;;;;38.35;19.50;;;6.30;99.90;;;;;;5010141;28;20049;-82
2022/12/05 03:43:33;;;;;;;36.92;19.40;;;6.40;99.90;;;;;;4991056;28;20050;-82
2022/12/05 03:46:04;;;;;;;37.17;20.20;;;6.40;99.90;;;;;;4989980;28;20133;-81
2022/12/05 03:48:34;;;;;;;35.58;18.70;;;6.40;99.90;;;;;;4990536;28;20062;-81
2022/12/05 03:51:02;;;;;;;33.78;18.85;;;6.40;99.90;;;;;;4988695;28;20398;-81
2022/12/05 03:53:31;;;;;;;38.00;19.40;;;6.30;99.90;;;;;;5000780;28;20322;-82
2022/12/05 03:56:02;;;;;;;37.13;19.30;;;6.30;99.90;;;;;;4990751;28;20073;-82
2022/12/05 03:58:31;;;;;;;;;;;6.30;99.90;;;;;;4991407;28;20125;-82
2022/12/05 04:00:59;;;;;;;33.45;18.58;;;6.30;99.90;;;;;;4989825;28;19932;-81
2022/12/05 04:03:37;;;;;;;38.88;19.88;;;6.30;99.90;;;;;;4989729;28;20406;-82
2022/12/05 04:06:10;;;;;;;37.03;19.92;;;6.30;99.90;;;;;;4989308;28;20042;-81
2022/12/05 04:08:39;;;;;;;35.80;18.83;;;6.30;99.90;;;;;;4992726;28;20047;-82
2022/12/05 04:11:12;;;;;;;36.28;19.10;;;6.30;99.90;;;;;;4982416;28;20049;-82
2022/12/05 04:13:43;;;;;;;34.55;19.17;;;6.40;99.90;;;;;;4970319;28;20045;-82
2022/12/05 04:19:00;;;;;;;37.50;19.65;;;6.30;99.90;;;;;;4989747;28;20038;-82
2022/12/05 04:21:38;;;;;;;34.23;18.33;;;6.30;99.90;;;;;;4988625;28;20042;-82
2022/12/05 04:27:01;;;;;;;40.25;19.75;;;6.30;99.90;;;;;;4986184;28;20038;-82
2022/12/05 04:29:31;;;;;;;37.50;19.20;;;6.30;99.90;;;;;;4986279;28;20057;-82
2022/12/05 04:32:03;;;;;;;38.40;19.00;;;6.30;99.90;;;;;;4988044;28;20042;-82
2022/12/05 04:34:31;;;;;;;37.33;19.15;;;6.30;99.90;;;;;;4994516;28;20047;-81
2022/12/05 04:37:02;;;;;;;35.03;19.17;;;6.30;99.90;;;;;;4988729;28;20057;-82
2022/12/05 04:39:34;;;;;;;40.63;17.92;;;6.30;99.90;;;;;;4993831;28;20045;-82
2022/12/05 04:42:03;;;;;;;36.75;18.23;;;6.30;99.90;;;;;;4997498;28;20503;-82
2022/12/05 04:44:34;;;;;;;34.45;18.48;;;6.30;99.90;;;;;;4989443;28;20038;-82
2022/12/05 04:47:03;;;;;;;34.28;18.67;;;6.30;99.90;;;;;;4988224;28;20050;-81
2022/12/05 04:49:31;;;;;;;36.13;19.20;;;6.40;99.90;;;;;;4989243;28;20050;-82
2022/12/05 04:52:03;;;;;;;38.47;19.17;;;6.40;99.90;;;;;;4989135;28;20042;-82
2022/12/05 04:54:33;;;;;;;37.13;19.92;;;6.40;99.90;;;;;;4988902;28;20530;-82
2022/12/05 04:57:04;;;;;;;35.10;18.33;;;6.30;99.90;;;;;;4992271;28;20526;-82
2022/12/05 04:59:31;;;;;;;38.22;19.05;;;6.30;99.90;;;;;;4993893;28;20038;-82
2022/12/05 05:02:02;;;;;;;34.95;18.23;;;6.40;99.90;;;;;;5008217;28;20042;-82
2022/12/05 05:04:32;;;;;;;32.58;18.50;;;6.40;99.90;;;;;;5002827;28;20042;-82
2022/12/05 05:07:00;;;;;;;37.30;19.35;;;6.60;99.90;;;;;;4979689;28;20054;-82
2022/12/05 05:09:27;;;;;;;38.20;18.88;;;6.30;99.90;;;;;;4969863;28;20046;-83
2022/12/05 05:11:54;;;;;;;36.63;19.83;;;6.30;99.90;;;;;;4985986;28;20049;-85
2022/12/05 05:14:21;;;;;;;35.92;18.67;;;6.30;99.90;;;;;;4986326;28;20049;-84
2022/12/05 05:16:48;;;;;;;34.53;18.48;;;6.30;99.90;;;;;;4999054;28;20133;-85
2022/12/05 05:19:17;;;;;;;36.65;18.70;;;6.30;99.90;;;;;;4987154;28;20045;-84
2022/12/05 05:21:44;;;;;;;39.60;19.33;;;6.30;99.90;;;;;;4989098;28;20509;-80
2022/12/05 05:24:14;;;;;;;36.40;19.02;;;6.30;99.90;;;;;;4986973;28;20523;-82
2022/12/05 05:26:42;;;;;;;38.28;20.05;;;6.30;99.90;;;;;;5005099;28;20046;-83
2022/12/05 05:29:10;;;;;;;32.30;18.50;;;6.40;99.90;;;;;;4979003;28;20050;-83
2022/12/05 05:31:38;;;;;;;36.22;19.27;;;6.30;99.90;;;;;;5004890;28;20046;-83
2022/12/05 05:34:06;;;;;;;37.85;19.65;;;6.30;99.90;;;;;;4986557;28;20050;-83
2022/12/05 05:36:33;;;;;;;37.50;19.90;;;6.30;99.90;;;;;;4997003;28;20494;-83
2022/12/05 05:39:00;;;;;;;39.60;20.83;;;6.40;99.90;;;;;;5008032;28;20050;-83
2022/12/05 05:41:31;;;;;;;36.25;20.30;;;6.30;99.90;;;;;;4987626;28;20050;-83
2022/12/05 05:43:59;;;;;;;40.35;21.05;;;6.30;99.90;;;;;;4988617;28;20054;-82
2022/12/05 05:46:28;;;;;;;35.33;19.75;;;6.50;99.90;;;;;;4991997;28;20410;-82
2022/12/05 05:48:55;;;;;;;36.20;20.33;;;6.30;99.90;;;;;;4995857;28;20615;-83
2022/12/05 05:51:22;;;;;;;37.47;20.05;;;6.30;99.90;;;;;;4982546;28;20050;-83
2022/12/05 05:53:49;;;;;;;38.22;19.65;;;6.30;99.90;;;;;;4987849;28;20046;-83
2022/12/05 05:56:18;;;;;;;37.05;19.40;;;6.30;99.90;;;;;;4989134;28;20073;-84
2022/12/05 05:58:46;;;;;;;38.63;18.98;;;6.30;99.90;;;;;;4988408;28;20058;-82
2022/12/05 06:01:15;;;;;;;38.55;20.25;;;6.30;99.90;;;;;;4986623;28;20053;-82
2022/12/05 06:03:42;;;;;;;36.50;19.08;;;6.40;99.90;;;;;;4989368;28;20042;-83
2022/12/05 06:06:13;;;;;;;35.40;18.63;;;6.30;99.90;;;;;;4992431;28;20053;-83
2022/12/05 06:08:41;;;;;;;34.03;18.67;;;6.30;99.90;;;;;;4997252;28;20046;-83
2022/12/05 06:11:10;;;;;;;35.35;18.30;;;6.40;99.90;;;;;;4992013;28;20073;-83
2022/12/05 06:13:37;;;;;;;40.50;20.45;;;6.20;99.90;;;;;;4991617;28;20513;-83
2022/12/05 06:16:07;;;;;;;38.88;19.80;;;6.20;99.90;;;;;;4991358;28;20046;-83
2022/12/05 06:18:35;;;;;;;33.97;19.23;;;6.20;99.90;;;;;;4992700;28;20804;-83
2022/12/05 06:21:02;;;;;;;37.55;18.60;;;6.10;99.90;;;;;;5003065;28;20057;-83
2022/12/05 06:23:29;;;;;;;33.92;18.13;;;6.10;99.90;;;;;;4991614;28;20233;-83
2022/12/05 06:25:56;;;;;;;37.97;19.15;;;6.10;99.90;;;;;;4995575;28;20046;-83
2022/12/05 06:28:25;;;;;;;34.22;17.85;;;6.10;99.90;;;;;;4998452;28;20055;-83
2022/12/05 06:30:52;;;;;;;35.78;18.70;;;6.10;99.90;;;;;;5003073;28;20530;-83
2022/12/05 06:33:20;;;;;;;34.67;17.98;;;6.10;99.90;;;;;;5000029;28;20041;-83
2022/12/05 06:35:47;;;;;;;35.80;19.30;;;6.10;99.90;;;;;;5004420;28;20045;-83
2022/12/05 06:38:14;;;;;;;34.85;18.85;;;6.10;99.90;;;;;;4996841;28;20050;-83
2022/12/05 06:40:42;;;;;;;32.20;18.27;;;6.10;99.90;;;;;;4991478;28;20050;-83
2022/12/05 06:43:09;;;;;;;38.30;20.05;;;6.10;99.90;;;;;;4991466;28;20046;-83
2022/12/05 06:45:37;;;;;;;36.03;19.50;;;6.10;99.90;;;;;;4983907;28;20047;-83
2022/12/05 06:48:04;;;;;;;35.38;19.05;;;6.10;99.90;;;;;;4983195;28;20553;-83
2022/12/05 06:50:33;;;;;;;38.83;19.00;;;6.20;99.90;;;;;;4990138;28;20042;-83
2022/12/05 06:53:00;;;;;;;34.30;18.83;;;6.20;99.90;;;;;;4992813;28;20052;-83
2022/12/05 06:55:27;;;;;;;40.22;19.58;;;6.10;99.90;;;;;;5002848;28;20460;-83
2022/12/05 06:57:54;;;;;;;31.77;18.83;;;6.20;99.90;;;;;;4993279;28;20407;-83
2022/12/05 07:03:06;;;;;;;40.05;20.95;;;6.10;99.90;;;;;;4991157;28;20071;-83
2022/12/05 07:05:34;;;;;;;39.42;21.58;;;6.20;99.90;;;;;;4989392;28;20042;-83
2022/12/05 07:08:01;;;;;;;39.95;21.83;;;6.20;99.90;;;;;;4998483;28;20499;-83
2022/12/05 07:10:28;;;;;;;37.63;21.50;;;6.20;99.90;;;;;;4985452;28;20046;-83
2022/12/05 07:12:56;;;;;;;42.50;23.58;;;6.20;99.90;;;;;;4991413;28;20056;-83
2022/12/05 07:15:23;;;;;;;43.28;23.48;;;6.20;99.90;;;;;;4999580;28;20133;-81
2022/12/05 07:17:50;;;;;;;42.50;24.00;;;6.20;99.90;;;;;;5006578;28;20688;-80
2022/12/05 07:20:17;;;;;;;44.47;24.17;;;6.20;99.90;;;;;;5000287;28;20056;-80
2022/12/05 07:22:45;;;;;;;42.90;23.63;;;6.10;99.90;;;;;;4997155;28;20047;-81
2022/12/05 07:25:12;;;;;;;43.45;24.88;;;6.20;99.90;;;;;;4982963;28;20042;-82
2022/12/05 07:27:39;;;;;;;43.35;23.85;;;6.20;99.90;;;;;;4988611;28;20049;-81
2022/12/05 07:30:09;;;;;;;39.88;22.60;;;6.20;99.90;;;;;;4991436;28;20046;-81
2022/12/05 07:32:36;;;;;;;43.25;22.65;;;6.20;99.90;;;;;;4990052;28;20773;-82
2022/12/05 07:35:03;;;;;;;39.33;21.95;;;6.20;99.90;;;;;;4993597;28;20050;-80
2022/12/05 07:37:30;;;;;;;40.47;22.85;;;6.20;99.90;;;;;;4991384;28;20061;-79
2022/12/05 07:39:59;;;;;;;37.28;21.70;;;6.20;99.90;;;;;;5014883;28;20520;-82
2022/12/05 07:42:25;;;;;;;36.88;21.02;;;6.20;99.90;;;;;;4994282;28;20054;-81
2022/12/05 07:44:52;;;;;;;36.60;20.70;;;6.20;99.90;;;;;;4984930;28;20382;-82
2022/12/05 07:47:19;;;;;;;34.78;19.35;;;6.20;99.90;;;;;;5011007;23;20057;-85
2022/12/05 07:49:46;;;;;;;35.35;19.88;;;6.20;99.90;;;;;;4992582;28;20414;-84
2022/12/05 07:52:13;;;;;;;30.90;17.73;;;6.10;99.90;;;;;;5009659;28;20038;-88
2022/12/05 07:54:40;;;;;;;30.35;17.38;;;6.10;99.90;;;;;;5010034;28;20523;-86
2022/12/05 07:57:08;;;;;;;30.77;18.00;;;6.10;99.90;;;;;;5006146;28;20084;-86
2022/12/05 07:59:35;;;;;;;30.67;18.05;;;6.10;99.90;;;;;;5020842;28;20175;-86
2022/12/05 08:02:02;;;;;;;34.03;19.95;;;6.10;99.90;;;;;;5004854;28;20116;-86
2022/12/05 08:04:29;;;;;;;35.25;19.63;;;6.10;99.90;;;;;;5009790;28;20053;-87
2022/12/05 08:06:56;;;;;;;30.88;16.92;;;6.10;99.90;;;;;;5010013;28;20197;-87
2022/12/05 08:09:23;;;;;;;31.73;18.35;;;6.00;99.90;;;;;;5009517;28;20046;-86
2022/12/05 08:11:50;;;;;;;34.55;19.17;;;6.00;99.90;;;;;;5009148;28;20046;-87
2022/12/05 08:14:18;;;;;;;31.08;17.98;;;6.00;99.90;;;;;;4999944;28;20128;-86
2022/12/05 08:16:45;;;;;;;30.08;17.35;;;5.90;99.90;;;;;;5020567;28;20130;-86
2022/12/05 08:19:14;;;;;;;31.65;17.42;;;5.90;99.90;;;;;;5035067;28;20053;-87
2022/12/05 08:21:41;;;;;;;29.05;17.33;;;5.90;99.90;;;;;;5034259;28;20045;-87
2022/12/05 08:24:08;;;;;;;30.90;18.55;;;5.90;99.90;;;;;;5034574;28;20121;-86
2022/12/05 08:26:36;;;;;;;31.05;18.23;;;5.90;99.90;;;;;;5022809;28;20536;-86
2022/12/05 08:29:05;;;;;;;27.92;16.50;;;5.90;99.90;;;;;;5007165;28;20056;-85
2022/12/05 08:31:36;;;;;;;30.98;18.17;;;5.80;99.90;;;;;;4996814;28;20052;-87
2022/12/05 08:34:03;;;;;;;31.20;18.85;;;5.80;99.90;;;;;;5023207;28;20072;-87
2022/12/05 08:36:31;;;;;;;28.80;16.92;;;5.90;99.90;;;;;;5014991;28;20041;-86
2022/12/05 08:38:59;;;;;;;29.75;17.70;;;5.90;99.90;;;;;;5013909;28;20056;-87
2022/12/05 08:41:27;;;;;;;26.25;15.38;;;5.80;99.90;;;;;;5023539;28;20044;-87
2022/12/05 08:43:55;;;;;;;28.17;16.05;;;5.80;99.90;;;;;;5008895;28;20041;-87
2022/12/05 08:46:22;;;;;;;27.02;15.73;;;5.70;99.90;;;;;;5005322;28;20073;-86
2022/12/05 08:48:50;;;;;;;29.08;15.95;;;5.70;99.90;;;;;;5009619;28;20133;-87
2022/12/05 08:51:17;;;;;;;27.10;15.95;;;5.70;99.90;;;;;;5008390;28;20096;-88
2022/12/05 08:53:44;;;;;;;29.55;16.88;;;5.70;99.90;;;;;;5009226;28;20041;-87
2022/12/05 08:56:15;;;;;;;28.50;16.17;;;5.70;99.90;;;;;;5010578;28;20422;-87
2022/12/05 08:58:42;;;;;;;29.85;16.00;;;5.70;99.90;;;;;;4992397;28;20105;-87
2022/12/05 09:01:11;;;;;;;27.23;15.88;;;5.70;99.90;;;;;;5005813;28;20038;-88
2022/12/05 09:03:38;;;;;;;25.67;15.45;;;5.70;99.90;;;;;;5013990;28;20091;-88
2022/12/05 09:06:12;;;;;;;26.55;15.55;;;5.70;99.90;;;;;;5029211;28;20123;-87
2022/12/05 09:08:39;;;;;;;31.38;17.73;;;5.70;99.90;;;;;;5029201;28;20049;-87
2022/12/05 09:11:07;;;;;;;29.08;16.92;;;5.70;99.90;;;;;;5015218;28;20057;-88
2022/12/05 09:13:35;;;;;;;28.77;17.27;;;5.90;99.90;;;;;;5010019;28;20053;-88
2022/12/05 09:16:06;;;;;;;29.88;17.13;;;5.70;99.90;;;;;;5009225;28;20056;-88
2022/12/05 09:18:33;;;;;;;26.92;15.95;;;5.70;99.90;;;;;;4984064;28;20524;-89
2022/12/05 09:21:05;;;;;;;29.73;16.35;;;5.70;99.90;;;;;;5009071;28;20112;-87
2022/12/05 09:23:34;;;;;;;26.45;16.17;;;5.60;99.90;;;;;;5021931;28;20045;-88
2022/12/05 09:26:02;;;;;;;29.40;16.63;;;5.60;99.90;;;;;;5012509;28;20053;-87
2022/12/05 09:28:29;;;;;;;27.25;15.65;;;5.60;99.90;;;;;;5025268;28;20705;-87
2022/12/05 09:30:57;;;;;;;28.75;15.98;;;5.60;99.90;;;;;;5016008;28;20084;-86
2022/12/05 09:33:24;;;;;;;28.73;16.58;;;5.60;99.90;;;;;;5016071;28;20041;-87
2022/12/05 09:35:51;;;;;;;28.77;15.77;;;5.60;99.90;;;;;;5009576;28;20486;-86
2022/12/05 09:38:18;;;;;;;28.17;16.33;;;5.60;99.90;;;;;;5013049;28;20045;-86
2022/12/05 09:40:50;;;;;;;30.52;16.25;;;5.60;99.90;;;;;;4998225;28;20048;-84
2022/12/05 09:43:22;;;;;;;25.48;15.23;;;5.70;99.90;;;;;;5015132;28;20037;-85
2022/12/05 09:45:54;;;;;;;24.35;15.20;;;5.70;99.90;;;;;;5014466;28;20128;-85
2022/12/05 09:48:22;;;;;;;22.77;14.10;;;5.70;99.90;;;;;;5010988;28;20092;-85
2022/12/05 09:50:52;;;;;;;22.95;14.43;;;5.80;99.90;;;;;;5003668;28;20073;-85
2022/12/05 09:53:30;;;;;;;20.33;13.70;;;5.70;99.90;;;;;;5015146;28;20062;-85
2022/12/05 09:56:04;;;;;;;22.25;13.45;;;5.70;99.90;;;;;;5012423;28;20050;-85
2022/12/05 09:58:40;;;;;;;24.92;14.38;;;5.70;99.90;;;;;;5020278;28;20045;-85
2022/12/05 10:01:18;;;;;;;20.70;13.10;;;5.70;99.90;;;;;;5027035;28;20128;-85
2022/12/05 10:04:01;;;;;;;25.10;13.68;;;5.70;99.90;;;;;;5014324;28;20116;-84
2022/12/05 10:06:32;;;;;;;19.98;12.43;;;5.70;99.90;;;;;;5016006;28;20096;-85
2022/12/05 10:09:14;;;;;;;22.20;13.98;;;5.80;99.90;;;;;;5009113;28;20042;-86
2022/12/05 10:11:46;;;;;;;22.55;13.95;;;5.80;99.90;;;;;;5010594;28;20500;-87
2022/12/05 10:14:20;;;;;;;22.48;12.98;;;5.80;99.90;;;;;;5020896;28;20073;-87
2022/12/05 10:16:48;;;;;;;22.27;13.90;;;5.80;99.90;;;;;;5010312;28;20041;-88
2022/12/05 10:19:19;;;;;;;22.25;13.18;;;5.80;99.90;;;;;;5014220;28;20045;-87
2022/12/05 10:21:50;;;;;;;22.60;14.50;;;5.80;99.90;;;;;;5011626;28;20435;-87
2022/12/05 10:24:23;;;;;;;20.00;13.07;;;5.80;99.90;;;;;;5006912;28;20121;-88
2022/12/05 10:26:54;;;;;;;20.27;13.20;;;5.80;99.90;;;;;;5011252;28;20100;-88
2022/12/05 10:29:27;;;;;;;20.77;13.05;;;5.80;99.90;;;;;;5013342;28;20072;-89
2022/12/05 10:31:57;;;;;;;20.50;13.52;;;5.80;99.90;;;;;;5013684;28;20053;-88
2022/12/05 10:34:28;;;;;;;20.52;13.35;;;5.90;99.90;;;;;;5013688;28;20120;-89
2022/12/05 10:36:58;;;;;;;21.02;12.95;;;6.00;99.90;;;;;;5012257;28;20046;-88
2022/12/05 10:39:25;;;;;;;20.10;13.00;;;5.80;99.90;;;;;;5017640;28;20077;-88
2022/12/05 10:41:54;;;;;;;20.65;13.10;;;5.80;99.90;;;;;;5020818;28;20049;-89
2022/12/05 10:44:21;;;;;;;18.08;12.02;;;5.90;99.90;;;;;;5013669;28;20061;-88
2022/12/05 10:46:48;;;;;;;16.92;11.43;;;5.90;99.90;;;;;;5003514;28;20117;-89
2022/12/05 10:49:15;;;;;;;20.00;13.23;;;5.90;99.90;;;;;;5015431;28;20807;-88
2022/12/05 10:51:42;;;;;;;18.98;11.55;;;5.90;99.90;;;;;;5011093;28;20145;-89
2022/12/05 10:54:17;;;;;;;18.70;11.27;;;5.90;99.90;;;;;;5010082;28;20490;-89
2022/12/05 10:56:45;;;;;;;25.00;14.52;;;5.90;99.90;;;;;;5012383;28;20046;-88
2022/12/05 10:59:15;;;;;;;23.15;14.13;;;5.90;99.90;;;;;;5011521;28;20172;-89
2022/12/05 11:01:47;;;;;;;25.48;14.48;;;5.90;99.90;;;;;;5013757;28;20430;-88
2022/12/05 11:04:26;;;;;;;26.63;15.93;;;6.00;99.90;;;;;;5012645;28;20037;-88
2022/12/05 11:06:56;;;;;;;24.17;15.05;;;5.90;99.90;;;;;;4996241;28;20111;-88
2022/12/05 11:09:24;;;;;;;23.30;15.18;;;5.90;99.90;;;;;;5011177;28;20530;-88
2022/12/05 11:12:01;;;;;;;23.00;15.20;;;5.90;99.90;;;;;;5007763;28;20092;-89
2022/12/05 11:14:32;;;;;;;24.35;14.18;;;5.90;99.90;;;;;;5005854;28;20037;-89
2022/12/05 11:17:00;;;;;;;24.85;15.48;;;5.80;99.90;;;;;;5010748;28;20054;-88
2022/12/05 11:19:29;;;;;;;26.63;15.07;;;5.80;99.90;;;;;;5027351;28;20041;-88
2022/12/05 11:21:56;;;;;;;24.00;14.55;;;5.80;99.90;;;;;;4992399;28;20504;-88
2022/12/05 11:24:27;;;;;;;21.75;13.85;;;5.80;99.90;;;;;;5012879;28;20041;-89
2022/12/05 11:26:54;;;;;;;25.23;15.43;;;5.80;99.90;;;;;;5011812;28;20045;-89
2022/12/05 11:29:36;;;;;;;25.23;16.38;;;5.80;99.90;;;;;;5010636;28;20050;-88
2022/12/05 11:32:04;;;;;;;24.92;15.43;;;5.70;99.90;;;;;;5009278;28;20108;-89
2022/12/05 11:34:37;;;;;;;28.58;17.13;;;5.70;99.90;;;;;;5008529;28;20037;-89
2022/12/05 11:37:12;;;;;;;24.05;14.70;;;5.70;99.90;;;;;;4998283;28;20054;-89
2022/12/05 11:39:39;;;;;;;27.92;16.25;;;5.70;99.90;;;;;;5017698;28;20041;-88
2022/12/05 11:42:27;;;;;;;26.80;15.90;;;5.70;99.90;;;;;;5009408;28;20117;-89
2022/12/05 11:45:09;;;;;;;25.52;16.15;;;5.60;99.90;;;;;;5004233;28;20045;-89
2022/12/05 11:47:57;;;;;;;26.30;16.23;;;5.60;99.90;;;;;;5011289;28;20485;-88
2022/12/05 11:50:33;;;;;;;26.85;16.20;;;5.60;99.90;;;;;;5010832;28;20057;-89
2022/12/05 11:53:10;;;;;;;31.77;18.30;;;5.60;99.90;;;;;;5009762;28;20120;-90
2022/12/05 11:55:42;;;;;;;30.40;17.92;;;5.60;99.90;;;;;;5010144;28;20156;-89
2022/12/05 11:58:25;;;;;;;31.23;18.20;;;5.60;99.90;;;;;;5003373;28;20063;-89
2022/12/05 12:01:05;;;;;;;32.95;18.42;;;5.60;99.90;;;;;;5011332;28;20116;-90
2022/12/05 12:03:59;;;;;;;34.55;19.27;;;5.60;99.90;;;;;;5011816;28;20040;-88
2022/12/05 12:06:43;;;;;;;32.35;19.48;;;5.60;99.90;;;;;;5003341;28;20049;-89
2022/12/05 12:09:23;;;;;;;31.35;18.50;;;5.60;99.90;;;;;;5010494;28;20046;-89
2022/12/05 12:11:54;;;;;;;33.38;19.25;;;5.60;99.90;;;;;;5012878;28;20099;-89
2022/12/05 12:14:27;;;;;;;32.80;18.63;;;5.60;99.90;;;;;;4993222;28;20037;-88
2022/12/05 12:17:03;;;;;;;37.15;20.67;;;5.60;99.90;;;;;;5027837;28;20041;-90
2022/12/05 12:19:46;;;;;;;35.72;19.85;;;5.60;99.90;;;;;;5023746;28;20053;-88
2022/12/05 12:22:36;;;;;;;36.80;19.48;;;5.60;99.90;;;;;;5037680;28;20052;-89
2022/12/05 12:25:28;;;;;;;37.05;20.48;;;5.60;99.90;;;;;;5024351;28;20502;-88
2022/12/05 12:28:04;;;;;;;34.22;20.27;;;5.60;99.90;;;;;;5025280;28;20049;-89
2022/12/05 12:30:44;;;;;;;35.50;20.45;;;5.60;99.90;;;;;;5013027;28;20426;-89
2022/12/05 12:33:16;;;;;;;35.45;19.85;;;5.60;99.90;;;;;;5031772;28;20053;-88
2022/12/05 12:35:47;;;;;;;35.90;20.63;;;5.50;99.90;;;;;;5021772;28;20101;-89
2022/12/05 12:38:31;;;;;;;31.10;18.92;;;5.50;99.90;;;;;;5022754;28;20090;-89
2022/12/05 12:41:03;;;;;;;32.88;19.50;;;5.50;99.90;;;;;;5037184;28;20050;-88
2022/12/05 12:43:42;;;;;;;30.15;17.98;;;5.50;99.90;;;;;;5018248;28;20097;-89
2022/12/05 12:46:16;;;;;;;34.17;18.88;;;5.50;99.90;;;;;;5032276;28;20026;-89
2022/12/05 12:48:55;;;;;;;29.58;17.48;;;5.50;99.90;;;;;;5039326;28;20037;-89
2022/12/05 12:51:22;;;;;;;32.90;18.05;;;5.50;99.90;;;;;;5034987;28;20038;-89
2022/12/05 12:54:11;;;;;;;30.20;17.67;;;5.50;99.90;;;;;;4994914;28;20107;-89
2022/12/05 12:56:43;;;;;;;26.05;16.77;;;5.50;99.90;;;;;;5007161;28;20052;-87
2022/12/05 12:59:22;;;;;;;29.58;17.15;;;5.50;99.90;;;;;;5008289;28;20046;-86
2022/12/05 13:01:53;;;;;;;26.30;16.15;;;5.50;99.90;;;;;;5006434;28;20050;-87